首页
METAR-TAF:

METAR-TAF

机场 :

El Dorado, 阿肯色州, 美国

纬度: 33-13-15N, 经度: 092-48-48W, 海拔: 84米

当前天气观测

该预报发布于7分钟前的20:53 UTC
风速5节,风向东南,有时为16节阵风
温度 19°C
湿度 24%
气压 1029 hPa
能見度: 16.1公里
天空无云

METAR: KELD 072053Z AUTO 14005G16KT 10SM CLR 19/M02 A3039 RMK AO2 SLP290 T01891022 56028

时间: 15:00 (21:00 UTC)

预报

该预报发布于3小时和23分钟前的17:37 UTC
预报有效从07日的 18点(UTC)到 08日的 18点(UTC)
风速7节,风向
能見度: 10公里
散云层高于25000英尺
从 08日的 0000点(UTC)
风速节,风向
能見度: 10公里
天空无云
从 08日的 1500点(UTC)
风速6节,风向南转南东
能見度: 10公里
天空无云

TAF: KELD 071737Z 0718/0818 10007KT P6SM SCT250 FM080000 00000KT P6SM SKC FM081500 15006KT P6SM SKC

超过4000个机场的气象观测和天气预报(METAR&TAF报告)。

可查询的气象台以黄色和红色小点在地图上表示。

将鼠标移到小点上方,可查看气象台名称。

然后点击查看天气观测和预报。

如需切换地图:点击带黑十字的绿色按钮放大地图;点击带横线的绿色按钮缩小地图;或者点击绿色箭头查看邻近地区的地图。


METAR-TAF: